createdAt,value
2018-05-03T00:00:48.246Z,2.20
2018-05-03T00:03:14.473Z,2.20
2018-05-03T00:05:40.777Z,2.40
2018-05-03T00:08:06.990Z,2.50
2018-05-03T00:10:33.304Z,1.97
2018-05-03T00:13:00.233Z,2.23
2018-05-03T00:15:26.572Z,1.60
2018-05-03T00:17:53.457Z,1.80
2018-05-03T00:20:19.880Z,1.90
2018-05-03T00:22:46.147Z,1.87
2018-05-03T00:25:12.404Z,2.00
2018-05-03T00:27:39.351Z,1.83
2018-05-03T00:30:06.381Z,1.90
2018-05-03T00:32:32.564Z,1.77
2018-05-03T00:34:58.800Z,1.97
2018-05-03T00:37:24.979Z,1.67
2018-05-03T00:39:51.917Z,1.70
2018-05-03T00:42:18.911Z,1.90
2018-05-03T00:44:45.065Z,1.73
2018-05-03T00:47:12.100Z,2.00
2018-05-03T00:49:38.292Z,1.60
2018-05-03T00:52:04.667Z,2.20
2018-05-03T00:54:43.965Z,2.10
2018-05-03T00:57:10.272Z,1.90
2018-05-03T00:59:36.505Z,2.00
2018-05-03T01:02:02.824Z,1.53
2018-05-03T01:04:29.027Z,1.53
2018-05-03T01:06:55.254Z,1.90
2018-05-03T01:09:21.466Z,1.60
2018-05-03T01:11:47.714Z,1.60
2018-05-03T01:14:14.869Z,2.10
2018-05-03T01:16:41.947Z,1.80
2018-05-03T01:19:08.201Z,1.73
2018-05-03T01:21:35.529Z,1.90
2018-05-03T01:24:01.794Z,1.70
2018-05-03T01:26:28.084Z,1.43
2018-05-03T01:28:54.382Z,2.03
2018-05-03T01:31:21.317Z,1.60
2018-05-03T01:33:48.345Z,2.00
2018-05-03T01:36:24.850Z,1.70
2018-05-03T01:38:51.090Z,1.53
2018-05-03T01:41:17.418Z,1.90
2018-05-03T01:43:43.832Z,1.70
2018-05-03T01:46:10.768Z,1.60
2018-05-03T01:48:37.876Z,2.00
2018-05-03T01:51:04.104Z,1.57
2018-05-03T01:53:30.395Z,1.40
2018-05-03T01:55:56.785Z,1.33
2018-05-03T01:58:23.061Z,1.53
2018-05-03T02:00:49.286Z,1.80
2018-05-03T02:03:15.507Z,1.33
2018-05-03T02:05:41.765Z,1.73
2018-05-03T02:08:08.055Z,1.50
2018-05-03T02:10:35.092Z,1.40
2018-05-03T02:13:02.175Z,1.77
2018-05-03T02:15:28.340Z,1.73
2018-05-03T02:17:54.596Z,1.67
2018-05-03T02:20:21.678Z,1.70
2018-05-03T02:22:48.152Z,1.47
2018-05-03T02:25:14.512Z,1.57
2018-05-03T02:27:41.421Z,1.40
2018-05-03T02:30:07.633Z,1.60
2018-05-03T02:32:33.808Z,1.80
2018-05-03T02:35:00.824Z,1.90
2018-05-03T02:37:27.081Z,1.80
2018-05-03T02:39:53.309Z,1.70
2018-05-03T02:42:19.699Z,1.77
2018-05-03T02:44:46.802Z,1.87
2018-05-03T02:47:13.133Z,1.40
2018-05-03T02:49:39.418Z,1.50
2018-05-03T02:52:05.595Z,1.20
2018-05-03T02:54:31.801Z,1.77
2018-05-03T02:57:10.365Z,1.60
2018-05-03T03:03:03.645Z,1.50
2018-05-03T03:05:48.221Z,1.47
2018-05-03T03:12:00.991Z,1.50
2018-05-03T03:14:46.034Z,1.47
2018-05-03T03:17:31.896Z,1.73
2018-05-03T03:23:32.829Z,1.33
2018-05-03T03:26:17.410Z,1.60
2018-05-03T03:29:01.993Z,1.90
2018-05-03T03:34:42.565Z,1.80
2018-05-03T03:37:31.868Z,1.50
2018-05-03T03:40:16.933Z,2.07
2018-05-03T03:45:42.983Z,2.03
2018-05-03T03:48:09.182Z,2.00
2018-05-03T03:50:36.197Z,2.00
2018-05-03T03:53:02.421Z,3.23
2018-05-03T03:55:28.740Z,2.70
2018-05-03T03:57:55.077Z,4.17
2018-05-03T04:00:21.575Z,6.33
2018-05-03T04:02:48.364Z,5.20
2018-05-03T04:05:14.638Z,4.40
2018-05-03T04:07:40.912Z,4.30
2018-05-03T04:10:07.182Z,6.73
2018-05-03T04:12:34.284Z,6.00
2018-05-03T04:15:00.699Z,5.60
2018-05-03T04:17:40.022Z,4.90
2018-05-03T04:20:18.703Z,5.20
2018-05-03T04:22:53.872Z,4.87
2018-05-03T04:25:32.496Z,4.83
2018-05-03T04:27:58.674Z,4.33
2018-05-03T04:30:24.872Z,2.93
2018-05-03T04:32:51.609Z,3.00
2018-05-03T04:35:17.876Z,2.90
2018-05-03T04:37:44.945Z,2.13
2018-05-03T04:40:11.114Z,2.37
2018-05-03T04:42:37.473Z,2.43
2018-05-03T04:45:03.678Z,3.00
2018-05-03T04:47:29.932Z,2.10
2018-05-03T04:49:57.060Z,2.80
2018-05-03T04:52:23.518Z,2.00
2018-05-03T04:54:50.791Z,2.03
2018-05-03T04:57:17.162Z,2.20
2018-05-03T04:59:43.446Z,2.40
2018-05-03T05:02:09.723Z,2.40
2018-05-03T05:04:35.940Z,2.57
2018-05-03T05:07:02.220Z,2.63
2018-05-03T05:09:28.609Z,2.40
2018-05-03T05:11:54.818Z,2.40
2018-05-03T05:14:21.264Z,3.73
2018-05-03T05:16:47.692Z,3.53
2018-05-03T05:19:13.893Z,3.50
2018-05-03T05:21:40.256Z,3.17
2018-05-03T05:24:06.711Z,3.60
2018-05-03T05:26:32.871Z,3.40
2018-05-03T05:28:59.096Z,3.83
2018-05-03T05:31:25.487Z,3.60
2018-05-03T05:33:51.774Z,3.40
2018-05-03T05:36:18.953Z,3.67
2018-05-03T05:38:45.316Z,4.17
2018-05-03T05:41:12.488Z,3.60
2018-05-03T05:43:38.791Z,3.20
2018-05-03T05:46:05.912Z,3.37
2018-05-03T05:48:32.078Z,3.70
2018-05-03T05:50:58.513Z,4.10
2018-05-03T05:53:25.487Z,3.67
2018-05-03T05:55:51.753Z,3.90
2018-05-03T05:58:17.973Z,4.13
2018-05-03T06:00:44.199Z,4.30
2018-05-03T06:03:10.473Z,3.60
2018-05-03T06:05:36.802Z,3.80
2018-05-03T06:08:02.976Z,4.10
2018-05-03T06:10:30.857Z,4.60
2018-05-03T06:12:57.016Z,3.80
2018-05-03T06:15:23.264Z,4.63
2018-05-03T06:17:49.742Z,4.60
2018-05-03T06:20:16.084Z,4.10
2018-05-03T06:22:43.083Z,5.20
2018-05-03T06:25:09.377Z,4.87
2018-05-03T06:27:35.604Z,4.10
2018-05-03T06:30:01.985Z,4.30
2018-05-03T06:32:28.323Z,4.10
2018-05-03T06:34:55.482Z,4.17
2018-05-03T06:37:21.734Z,4.80
2018-05-03T06:39:49.729Z,4.00
2018-05-03T06:42:16.904Z,4.90
2018-05-03T06:44:43.198Z,4.70
2018-05-03T06:47:09.403Z,4.43
2018-05-03T06:49:35.736Z,4.07
2018-05-03T06:52:02.720Z,4.37
2018-05-03T06:54:28.900Z,4.20
2018-05-03T06:56:56.004Z,4.60
2018-05-03T06:59:22.280Z,4.30
2018-05-03T07:01:49.248Z,3.90
2018-05-03T07:04:15.624Z,4.17
2018-05-03T07:06:41.793Z,4.70
2018-05-03T07:09:08.065Z,3.67
2018-05-03T07:11:35.232Z,4.63
2018-05-03T07:14:01.443Z,3.90
2018-05-03T07:16:27.777Z,4.10
2018-05-03T07:18:54.137Z,4.97
2018-05-03T07:21:21.187Z,4.40
2018-05-03T07:23:48.209Z,4.47
2018-05-03T07:26:14.366Z,4.70
2018-05-03T07:28:40.586Z,5.43
2018-05-03T07:31:07.768Z,4.70
2018-05-03T07:33:34.018Z,5.73
2018-05-03T07:36:00.356Z,4.90
2018-05-03T07:38:26.635Z,5.03
2018-05-03T07:40:53.349Z,3.90
2018-05-03T07:43:20.073Z,4.30
2018-05-03T07:45:46.396Z,4.37
2018-05-03T07:48:13.385Z,4.73
2018-05-03T07:50:39.657Z,4.83
2018-05-03T07:53:05.835Z,5.20
2018-05-03T07:55:32.924Z,5.07
2018-05-03T07:57:59.833Z,4.33
2018-05-03T08:00:26.027Z,4.77
2018-05-03T08:02:53.521Z,4.60
2018-05-03T08:05:19.790Z,5.47
2018-05-03T08:07:46.058Z,5.40
2018-05-03T08:10:13.163Z,4.73
2018-05-03T08:12:39.445Z,4.90
2018-05-03T08:15:06.643Z,5.20
2018-05-03T08:17:32.896Z,5.67
2018-05-03T08:19:59.911Z,5.50
2018-05-03T08:22:26.332Z,5.93
2018-05-03T08:24:52.545Z,6.17
2018-05-03T08:27:18.931Z,5.80
2018-05-03T08:29:45.960Z,5.87
2018-05-03T08:32:12.181Z,5.50
2018-05-03T08:34:38.412Z,6.40
2018-05-03T08:37:04.730Z,5.90
2018-05-03T08:39:31.003Z,7.30
2018-05-03T08:41:58.172Z,6.60
2018-05-03T08:44:24.433Z,7.13
2018-05-03T08:46:50.802Z,6.97
2018-05-03T08:49:17.927Z,7.60
2018-05-03T08:51:44.987Z,6.57
2018-05-03T08:54:11.354Z,7.17
2018-05-03T08:56:37.580Z,6.93
2018-05-03T08:59:04.463Z,6.53
2018-05-03T09:01:30.785Z,7.00
2018-05-03T09:03:57.021Z,6.90
2018-05-03T09:06:23.360Z,6.60
2018-05-03T09:08:49.703Z,6.50
2018-05-03T09:11:15.935Z,6.70
2018-05-03T09:13:43.006Z,6.60
2018-05-03T09:16:09.282Z,7.63
2018-05-03T09:18:35.487Z,7.50
2018-05-03T09:21:01.902Z,6.67
2018-05-03T09:23:28.105Z,7.03
2018-05-03T09:25:55.728Z,7.13
2018-05-03T09:28:22.155Z,6.93
2018-05-03T09:30:48.596Z,6.63
2018-05-03T09:33:14.925Z,7.10
2018-05-03T09:35:41.357Z,7.47
2018-05-03T09:38:07.557Z,7.00
2018-05-03T09:40:33.911Z,7.00
2018-05-03T09:43:00.269Z,7.63
2018-05-03T09:45:26.675Z,6.83
2018-05-03T09:47:52.940Z,7.77
2018-05-03T09:50:20.263Z,7.40
2018-05-03T09:52:46.828Z,7.80
2018-05-03T09:55:14.145Z,8.00
2018-05-03T09:57:40.473Z,7.83
2018-05-03T10:00:06.800Z,7.80
2018-05-03T10:02:33.136Z,8.30
2018-05-03T10:05:00.865Z,7.40
2018-05-03T10:07:27.111Z,8.80
2018-05-03T10:09:53.653Z,11.87
2018-05-03T10:12:20.156Z,8.73
2018-05-03T10:14:46.625Z,7.40
2018-05-03T10:17:13.303Z,8.53
2018-05-03T10:19:40.524Z,8.93
2018-05-03T10:22:07.163Z,9.23
2018-05-03T10:24:34.287Z,8.20
2018-05-03T10:27:00.754Z,7.60
2018-05-03T10:29:27.118Z,9.00
2018-05-03T10:31:53.718Z,7.70
2018-05-03T10:34:19.962Z,8.50
2018-05-03T10:36:47.077Z,8.30
2018-05-03T10:39:13.402Z,8.23
2018-05-03T10:41:39.801Z,8.73
2018-05-03T10:44:06.169Z,7.97
2018-05-03T10:46:32.881Z,7.80
2018-05-03T10:48:59.337Z,6.70
2018-05-03T10:51:26.417Z,7.77
2018-05-03T10:53:53.390Z,7.47
2018-05-03T10:56:19.657Z,6.83
2018-05-03T10:58:46.005Z,7.53
2018-05-03T11:01:12.159Z,7.43
2018-05-03T11:03:38.446Z,8.13
2018-05-03T11:06:04.723Z,7.33
2018-05-03T11:08:30.991Z,8.20
2018-05-03T11:10:57.219Z,6.30
2018-05-03T11:13:23.554Z,8.70
2018-05-03T11:15:49.819Z,7.50
2018-05-03T11:18:16.770Z,7.80
2018-05-03T11:20:43.184Z,7.60
2018-05-03T11:23:10.344Z,7.90
2018-05-03T11:25:37.437Z,7.53
2018-05-03T11:28:03.804Z,7.03
2018-05-03T11:30:30.316Z,6.57
2018-05-03T11:32:56.628Z,7.73
2018-05-03T11:35:22.974Z,7.00
2018-05-03T11:37:49.406Z,6.57
2018-05-03T11:40:15.777Z,6.63
2018-05-03T11:42:42.690Z,6.13
2018-05-03T11:45:08.950Z,7.13
2018-05-03T11:47:35.381Z,7.77
2018-05-03T11:50:02.530Z,7.13
2018-05-03T11:52:28.777Z,6.50
2018-05-03T11:54:55.209Z,6.63
2018-05-03T11:57:21.812Z,6.70
2018-05-03T11:59:49.065Z,7.00
2018-05-03T12:02:15.684Z,7.67
2018-05-03T12:04:42.210Z,7.80
2018-05-03T12:07:08.580Z,7.27
2018-05-03T12:09:35.665Z,7.57
2018-05-03T12:12:02.204Z,7.20
2018-05-03T12:14:28.650Z,7.80
2018-05-03T12:16:54.984Z,6.87
2018-05-03T12:19:21.279Z,7.37
2018-05-03T12:21:47.468Z,7.70
2018-05-03T12:24:13.841Z,7.97
2018-05-03T12:26:40.202Z,7.80
2018-05-03T12:29:06.681Z,6.30
2018-05-03T12:31:33.541Z,6.33
2018-05-03T12:33:59.919Z,6.73
2018-05-03T12:36:26.152Z,6.47
2018-05-03T12:38:52.469Z,7.20
2018-05-03T12:41:18.773Z,6.30
2018-05-03T12:43:45.094Z,7.27
2018-05-03T12:46:11.371Z,5.77
2018-05-03T12:48:38.669Z,6.10
2018-05-03T12:51:05.045Z,5.30
2018-05-03T12:53:31.286Z,5.80
2018-05-03T12:55:57.694Z,5.60
2018-05-03T12:58:24.380Z,5.37
2018-05-03T13:00:51.522Z,5.90
2018-05-03T13:03:18.274Z,5.67
2018-05-03T13:05:44.705Z,4.93
2018-05-03T13:08:11.184Z,5.53
2018-05-03T13:10:37.694Z,5.73
2018-05-03T13:13:04.051Z,5.87
2018-05-03T13:15:30.405Z,4.93
2018-05-03T13:17:56.741Z,4.50
2018-05-03T13:20:24.536Z,5.20
2018-05-03T13:22:51.321Z,5.67
2018-05-03T13:25:17.566Z,5.93
2018-05-03T13:27:45.359Z,6.80
2018-05-03T13:30:11.842Z,7.60
2018-05-03T13:32:38.220Z,6.40
2018-05-03T13:35:05.219Z,6.30
2018-05-03T13:37:31.545Z,5.83
2018-05-03T13:39:57.741Z,6.13
2018-05-03T13:42:24.260Z,5.40
2018-05-03T13:44:50.709Z,5.00
2018-05-03T13:47:17.322Z,4.97
2018-05-03T13:49:43.713Z,5.70
2018-05-03T13:52:10.016Z,7.00
2018-05-03T13:54:36.304Z,6.97
2018-05-03T13:57:03.419Z,6.83
2018-05-03T13:59:29.685Z,6.40
2018-05-03T14:01:56.732Z,7.93
2018-05-03T14:04:23.808Z,7.60
2018-05-03T14:06:50.398Z,6.10
2018-05-03T14:09:16.685Z,5.20
2018-05-03T14:11:42.976Z,5.60
2018-05-03T14:14:10.304Z,4.80
2018-05-03T14:16:36.617Z,5.23
2018-05-03T14:19:02.950Z,5.50
2018-05-03T14:21:29.378Z,4.73
2018-05-03T14:23:55.610Z,5.30
2018-05-03T14:26:21.876Z,6.27
2018-05-03T14:28:48.794Z,6.00
2018-05-03T14:31:15.191Z,5.90
2018-05-03T14:33:41.429Z,5.73
2018-05-03T14:36:07.588Z,5.20
2018-05-03T14:38:34.596Z,5.60
2018-05-03T14:41:00.884Z,5.60
2018-05-03T14:43:27.921Z,5.70
2018-05-03T14:45:54.941Z,4.90
2018-05-03T14:48:21.208Z,5.70
2018-05-03T14:50:47.596Z,6.10
2018-05-03T14:53:13.813Z,6.33
2018-05-03T14:55:40.091Z,6.03
2018-05-03T14:58:07.208Z,5.90
2018-05-03T15:00:33.626Z,5.90
2018-05-03T15:02:59.900Z,5.57
2018-05-03T15:05:26.489Z,6.47
2018-05-03T15:07:52.696Z,5.33
2018-05-03T15:10:19.871Z,6.10
2018-05-03T15:12:46.282Z,5.83
2018-05-03T15:15:12.585Z,5.40
2018-05-03T15:17:38.836Z,6.23
2018-05-03T15:20:05.087Z,5.13
2018-05-03T15:22:31.271Z,4.87
2018-05-03T15:24:57.549Z,6.00
2018-05-03T15:27:23.765Z,5.00
2018-05-03T15:29:50.018Z,5.70
2018-05-03T15:32:16.381Z,5.70
2018-05-03T15:34:43.025Z,5.37
2018-05-03T15:37:09.224Z,5.20
2018-05-03T15:39:36.330Z,5.30
2018-05-03T15:42:02.626Z,5.67
2018-05-03T15:44:28.945Z,5.20
2018-05-03T15:46:55.250Z,4.93
2018-05-03T15:49:22.368Z,4.80
2018-05-03T15:51:48.718Z,4.57
2018-05-03T15:54:15.077Z,5.77
2018-05-03T15:56:41.334Z,5.63
2018-05-03T15:59:07.581Z,5.70
2018-05-03T16:01:36.528Z,5.10
2018-05-03T16:04:03.122Z,5.57
2018-05-03T16:06:29.451Z,4.87
2018-05-03T16:08:56.001Z,6.20
2018-05-03T16:11:22.987Z,5.50
2018-05-03T16:13:49.342Z,5.40
2018-05-03T16:16:15.646Z,5.60
2018-05-03T16:18:41.824Z,5.50
2018-05-03T16:21:08.345Z,6.30
2018-05-03T16:23:34.525Z,5.80
2018-05-03T16:26:00.809Z,6.10
2018-05-03T16:28:27.210Z,6.00
2018-05-03T16:30:53.505Z,6.37
2018-05-03T16:33:19.749Z,6.23
2018-05-03T16:35:46.097Z,6.30
2018-05-03T16:38:12.285Z,6.60
2018-05-03T16:40:39.257Z,6.30
2018-05-03T16:43:05.487Z,6.60
2018-05-03T16:45:32.516Z,6.30
2018-05-03T16:47:58.693Z,6.73
2018-05-03T16:50:25.227Z,6.90
2018-05-03T16:52:51.816Z,6.53
2018-05-03T16:55:18.127Z,5.70
2018-05-03T16:57:45.136Z,6.30
2018-05-03T17:00:13.142Z,6.17
2018-05-03T17:02:40.136Z,6.17
2018-05-03T17:05:06.273Z,6.30
2018-05-03T17:07:32.703Z,5.73
2018-05-03T17:09:58.962Z,5.60
2018-05-03T17:12:26.039Z,6.50
2018-05-03T17:14:52.228Z,6.00
2018-05-03T17:17:18.484Z,5.73
2018-05-03T17:19:44.717Z,6.20
2018-05-03T17:22:11.010Z,5.87
2018-05-03T17:24:37.178Z,6.77
2018-05-03T17:27:03.444Z,5.77
2018-05-03T17:29:29.716Z,6.30
2018-05-03T17:31:56.687Z,6.90
2018-05-03T17:34:22.883Z,6.27
2018-05-03T17:36:49.914Z,6.10
2018-05-03T17:39:16.241Z,5.70
2018-05-03T17:41:43.319Z,6.00
2018-05-03T17:44:09.645Z,6.70
2018-05-03T17:46:36.591Z,6.80
2018-05-03T17:49:03.809Z,7.40
2018-05-03T17:51:30.227Z,6.10
2018-05-03T17:53:56.560Z,6.77
2018-05-03T17:56:22.762Z,6.83
2018-05-03T17:58:49.051Z,7.60
2018-05-03T18:01:15.449Z,8.10
2018-05-03T18:03:41.631Z,6.43
2018-05-03T18:06:08.026Z,6.20
2018-05-03T18:08:35.154Z,7.73
2018-05-03T18:11:01.674Z,6.43
2018-05-03T18:13:28.270Z,7.90
2018-05-03T18:15:54.652Z,7.70
2018-05-03T18:18:20.845Z,7.80
2018-05-03T18:20:47.204Z,6.43
2018-05-03T18:23:13.545Z,5.50
2018-05-03T18:25:39.972Z,5.60
2018-05-03T18:28:06.225Z,5.83
2018-05-03T18:30:32.552Z,6.83
2018-05-03T18:32:59.032Z,6.40
2018-05-03T18:35:25.236Z,5.50
2018-05-03T18:37:52.236Z,5.30
2018-05-03T18:40:18.581Z,6.00
2018-05-03T18:42:45.611Z,5.37
2018-05-03T18:45:11.982Z,5.50
2018-05-03T18:47:38.455Z,9.27
2018-05-03T18:50:04.813Z,16.73
2018-05-03T18:52:31.171Z,15.97
2018-05-03T18:54:57.418Z,24.17
2018-05-03T18:57:23.674Z,9.60
2018-05-03T18:59:50.228Z,19.30
2018-05-03T19:02:16.758Z,8.60
2018-05-03T19:04:42.978Z,5.97
2018-05-03T19:07:09.330Z,6.43
2018-05-03T19:09:35.610Z,8.20
2018-05-03T19:12:01.979Z,8.13
2018-05-03T19:14:28.953Z,8.37
2018-05-03T19:16:55.932Z,8.13
2018-05-03T19:19:22.191Z,8.63
2018-05-03T19:21:49.304Z,8.00
2018-05-03T19:24:15.563Z,7.60
2018-05-03T19:26:41.889Z,7.57
2018-05-03T19:29:08.229Z,7.10
2018-05-03T19:31:35.175Z,6.73
2018-05-03T19:34:01.414Z,6.00
2018-05-03T19:36:27.831Z,5.67
2018-05-03T19:38:54.091Z,6.07
2018-05-03T19:41:21.218Z,5.47
2018-05-03T19:43:47.537Z,5.23
2018-05-03T19:46:14.230Z,5.47
2018-05-03T19:48:40.477Z,4.60
2018-05-03T19:51:06.703Z,5.20
2018-05-03T19:53:33.005Z,4.90
2018-05-03T19:56:00.149Z,4.20
2018-05-03T19:58:27.219Z,4.30
2018-05-03T20:00:53.926Z,4.30
2018-05-03T20:03:20.970Z,3.53
2018-05-03T20:05:48.028Z,3.80
2018-05-03T20:08:15.041Z,3.37
2018-05-03T20:10:41.423Z,3.10
2018-05-03T20:13:08.258Z,3.33
2018-05-03T20:15:35.145Z,3.80
2018-05-03T20:18:02.017Z,3.37
2018-05-03T20:20:28.474Z,3.20
2018-05-03T20:22:55.543Z,3.67
2018-05-03T20:25:24.987Z,2.90
2018-05-03T20:27:51.594Z,2.90
2018-05-03T20:30:17.916Z,3.67
2018-05-03T20:32:44.286Z,3.07
2018-05-03T20:35:10.734Z,2.60
2018-05-03T20:37:37.743Z,3.33
2018-05-03T20:40:04.184Z,3.10
2018-05-03T20:42:30.477Z,2.93
2018-05-03T20:44:56.780Z,2.67
2018-05-03T20:47:23.850Z,2.97
2018-05-03T20:49:50.467Z,2.60
2018-05-03T20:52:16.982Z,2.23
2018-05-03T20:54:44.050Z,1.90
2018-05-03T20:57:10.261Z,2.10
2018-05-03T20:59:37.313Z,1.80
2018-05-03T21:02:04.437Z,2.30
2018-05-03T21:04:31.428Z,2.20
2018-05-03T21:06:57.607Z,3.00
2018-05-03T21:09:23.824Z,3.30
2018-05-03T21:11:50.026Z,3.63
2018-05-03T21:14:16.312Z,7.70
2018-05-03T21:16:43.330Z,11.33
2018-05-03T21:19:09.612Z,16.23
2018-05-03T21:21:36.353Z,18.27
2018-05-03T21:24:02.673Z,13.47
2018-05-03T21:26:29.076Z,3.83
2018-05-03T21:28:55.230Z,4.03
2018-05-03T21:31:21.577Z,4.27
2018-05-03T21:33:47.829Z,4.07
2018-05-03T21:36:14.063Z,3.80
2018-05-03T21:38:40.493Z,3.60
2018-05-03T21:41:06.834Z,2.90
2018-05-03T21:43:33.760Z,2.90
2018-05-03T21:46:00.000Z,1.63
2018-05-03T21:48:26.271Z,1.97
2018-05-03T21:50:53.313Z,1.80
2018-05-03T21:53:19.486Z,2.20
2018-05-03T21:55:45.742Z,1.53
2018-05-03T21:58:11.928Z,1.83
2018-05-03T22:00:38.280Z,2.40
2018-05-03T22:03:05.275Z,1.93
2018-05-03T22:05:31.537Z,1.90
2018-05-03T22:07:57.925Z,1.97
2018-05-03T22:10:25.001Z,1.40
2018-05-03T22:12:51.358Z,1.90
2018-05-03T22:15:17.564Z,1.63
2018-05-03T22:17:43.862Z,1.90
2018-05-03T22:20:10.942Z,1.67
2018-05-03T22:22:37.225Z,1.20
2018-05-03T22:25:04.243Z,1.60
2018-05-03T22:27:30.519Z,1.80
2018-05-03T22:29:56.932Z,1.50
2018-05-03T22:32:23.875Z,1.60
2018-05-03T22:34:50.835Z,1.63
2018-05-03T22:37:17.146Z,1.63
2018-05-03T22:39:44.166Z,1.93
2018-05-03T22:42:11.269Z,1.33
2018-05-03T22:44:37.474Z,1.73
2018-05-03T22:47:04.595Z,1.97
2018-05-03T22:49:31.495Z,2.57
2018-05-03T22:51:57.792Z,2.00
2018-05-03T22:54:24.780Z,1.53
2018-05-03T22:56:51.122Z,1.53
2018-05-03T22:59:17.391Z,1.83
2018-05-03T23:01:44.353Z,2.20
2018-05-03T23:04:10.667Z,2.17
2018-05-03T23:06:37.677Z,1.83
2018-05-03T23:09:03.964Z,2.07
2018-05-03T23:11:30.213Z,2.20
2018-05-03T23:13:56.420Z,2.03
2018-05-03T23:16:22.664Z,1.97
2018-05-03T23:18:48.864Z,1.90
2018-05-03T23:21:15.155Z,1.50
2018-05-03T23:23:41.371Z,1.90
2018-05-03T23:26:07.614Z,2.17
2018-05-03T23:28:33.928Z,2.00
2018-05-03T23:31:00.189Z,1.77
2018-05-03T23:33:27.126Z,1.80
2018-05-03T23:35:53.352Z,1.67
2018-05-03T23:38:20.396Z,2.00
2018-05-03T23:40:46.875Z,1.33
2018-05-03T23:43:13.107Z,2.00
2018-05-03T23:45:39.310Z,1.77
2018-05-03T23:48:05.637Z,1.50
2018-05-03T23:50:32.068Z,1.60
2018-05-03T23:52:58.306Z,1.40
2018-05-03T23:55:24.578Z,1.53
2018-05-03T23:57:50.764Z,1.97
